Terminal Aerodrome Forecast
Issued by NWS Austin/San Antonio, TX

Home | Current Version | Previous Version | Text Only | Print | Product List | Glossary On
Versions: 1 2 3 4 5 6 7 8 9 10 11 12 13 14 15 16 17 18 19 20 21
000
FTUS44 KEWX 310827 AAA
TAFAUS
TAF AMD
KAUS 310827Z 3108/0112 18010KT P6SM FEW015
     FM310900 18005KT 6SM BR SCT008 BKN014
     FM311500 19010KT P6SM SCT030
     FM312200 16011KT P6SM SCT250
     FM011100 18004KT 6SM BR SCT008 BKN014=

USA.gov is the U.S. government's official web portal to all federal, state and local government web resources and services.